Time;durP1;ratioP1;P1;durP2;ratioP2;P2;SDS_P1;SDS_P2;PMS_P1;PMS_P2;Temp;Humidity;BMP_temperature;BMP_pressure;BME280_temperature;BME280_humidity;BME280_pressure;Samples;Min_cycle;Max_cycle;Signal;HPM_P1;HPM_P2
2023/04/05 00:00:35;;;;;;;6.05;2.58;;;;;;;1.28;45.96;100328.14;1772256;80;21103;-65
2023/04/05 00:03:07;;;;;;;4.42;2.27;;;;;;;1.28;45.89;100323.00;1760876;79;21083;-65
2023/04/05 00:05:35;;;;;;;4.15;2.83;;;;;;;1.27;45.92;100328.58;1771511;80;21068;-65
2023/04/05 00:08:03;;;;;;;5.33;3.20;;;;;;;1.24;45.96;100331.59;1770343;79;21095;-66
2023/04/05 00:10:31;;;;;;;4.20;1.87;;;;;;;1.22;45.95;100324.29;1765113;80;21055;-66
2023/04/05 00:13:00;;;;;;;4.42;2.67;;;;;;;1.21;46.06;100327.73;1770621;79;21068;-66
2023/04/05 00:15:35;;;;;;;7.20;2.22;;;;;;;1.16;45.97;100324.30;1769674;79;21123;-66
2023/04/05 00:17:59;;;;;;;3.45;2.25;;;;;;;1.10;46.12;100315.71;1762033;80;21078;-65
2023/04/05 00:20:28;;;;;;;3.95;2.30;;;;;;;1.07;46.16;100313.14;1766716;79;20986;-65
2023/04/05 00:22:55;;;;;;;6.90;2.65;;;;;;;1.01;46.13;100319.56;1758851;80;21011;-65
2023/04/05 00:25:21;;;;;;;5.87;2.45;;;;;;;0.92;46.23;100318.25;1768923;79;21025;-65
2023/04/05 00:27:47;;;;;;;4.20;2.60;;;;;;;0.85;46.32;100308.83;1770438;80;21012;-65
2023/04/05 00:30:19;;;;;;;4.50;2.62;;;;;;;0.76;46.27;100313.96;1769129;80;21560;-65
2023/04/05 00:32:42;;;;;;;5.03;2.90;;;;;;;0.69;46.36;100309.21;1768821;80;21555;-67
2023/04/05 00:35:08;;;;;;;5.28;2.65;;;;;;;0.60;46.40;100312.62;1766418;79;20968;-65
2023/04/05 00:37:34;;;;;;;5.95;2.42;;;;;;;0.55;46.62;100312.17;1764803;80;22411;-65
2023/04/05 00:40:02;;;;;;;4.72;2.42;;;;;;;0.53;46.63;100312.16;1765698;79;21006;-66
2023/04/05 00:42:28;;;;;;;6.90;3.15;;;;;;;0.52;46.71;100304.46;1763853;79;21462;-64
2023/04/05 00:44:54;;;;;;;5.67;2.70;;;;;;;0.49;46.74;100300.17;1760952;79;21545;-65
2023/04/05 00:47:20;;;;;;;5.00;2.62;;;;;;;0.47;46.80;100300.58;1766985;79;21035;-65
2023/04/05 00:49:47;;;;;;;7.75;2.60;;;;;;;0.46;46.87;100301.45;1770446;79;21092;-65
2023/04/05 00:52:14;;;;;;;4.97;2.52;;;;;;;0.48;46.85;100295.89;1765142;80;20988;-65
2023/04/05 00:54:42;;;;;;;;;;;;;;;0.42;46.96;100297.13;1765895;79;21563;-64
2023/04/05 00:57:09;;;;;;;5.47;2.70;;;;;;;0.40;47.29;100295.02;1766700;79;20924;-67
2023/04/05 00:59:35;;;;;;;6.90;3.03;;;;;;;0.40;47.10;100295.86;1773376;80;21193;-65
2023/04/05 01:02:07;;;;;;;5.47;2.87;;;;;;;0.43;47.21;100297.59;1769331;79;22236;-65
2023/04/05 01:04:37;;;;;;;3.80;2.75;;;;;;;0.46;47.26;100298.03;1769162;79;21082;-65
2023/04/05 01:07:25;;;;;;;8.95;3.30;;;;;;;0.50;47.36;100301.87;1765678;80;21033;-66
2023/04/05 01:09:57;;;;;;;4.05;2.20;;;;;;;0.55;47.36;100296.76;1750029;79;21051;-67
2023/04/05 01:12:31;;;;;;;6.35;2.83;;;;;;;0.59;47.42;100289.08;1761653;80;21061;-65
2023/04/05 01:14:59;;;;;;;6.17;2.80;;;;;;;0.59;47.44;100285.66;1764352;79;21053;-65
2023/04/05 01:17:35;;;;;;;;;;;;;;;0.56;47.39;100284.33;1764093;80;21592;-65
2023/04/05 01:19:59;;;;;;;5.65;2.70;;;;;;;0.58;47.82;100279.62;1764828;80;20169;-66
2023/04/05 01:22:44;;;;;;;6.53;3.33;;;;;;;0.62;47.62;100285.22;1758075;80;21005;-66
2023/04/05 01:25:47;;;;;;;8.25;3.00;;;;;;;0.68;47.72;100287.38;1757001;80;21672;-66
2023/04/05 01:28:51;;;;;;;6.00;2.55;;;;;;;0.66;47.66;100288.22;1759768;80;21396;-65
2023/04/05 01:31:37;;;;;;;9.05;2.90;;;;;;;0.65;47.71;100281.37;1764548;80;21013;-64
2023/04/05 01:34:29;;;;;;;6.12;3.77;;;;;;;0.63;47.72;100283.07;1763458;80;21642;-65
2023/04/05 01:36:59;;;;;;;9.98;2.45;;;;;;;0.58;47.82;100284.77;1766842;80;21019;-65
2023/04/05 01:39:26;;;;;;;5.42;3.02;;;;;;;0.56;47.86;100283.93;1765676;79;21578;-65
2023/04/05 01:41:58;;;;;;;5.58;2.20;;;;;;;0.52;47.93;100287.33;1762198;79;21056;-66
2023/04/05 01:44:25;;;;;;;4.40;2.40;;;;;;;0.46;47.95;100279.61;1762878;79;21051;-65
2023/04/05 01:46:51;;;;;;;8.93;3.23;;;;;;;0.40;48.07;100289.88;1763600;79;21029;-65
2023/04/05 01:49:17;;;;;;;4.03;2.70;;;;;;;0.35;48.13;100276.15;1763058;80;21021;-65
2023/04/05 01:51:44;;;;;;;8.73;3.20;;;;;;;0.31;48.11;100284.69;1770754;79;20974;-65
2023/04/05 01:54:10;;;;;;;5.55;3.12;;;;;;;0.21;48.08;100273.10;1765992;79;21112;-64
2023/04/05 01:56:36;;;;;;;4.25;2.52;;;;;;;0.13;48.12;100266.22;1772185;80;21478;-66
2023/04/05 01:59:02;;;;;;;5.17;2.67;;;;;;;0.01;48.19;100270.89;1762716;79;21610;-66
2023/04/05 02:01:28;;;;;;;4.10;2.47;;;;;;;-0.03;48.34;100267.86;1765397;79;21071;-66
2023/04/05 02:03:55;;;;;;;4.47;2.87;;;;;;;-0.08;48.36;100268.29;1765706;79;21100;-65
2023/04/05 02:06:22;;;;;;;6.90;2.33;;;;;;;-0.14;48.46;100271.69;1766833;79;21069;-65
2023/04/05 02:08:48;;;;;;;5.25;3.50;;;;;;;-0.17;48.45;100265.66;1759623;79;21837;-66
2023/04/05 02:11:14;;;;;;;7.15;3.27;;;;;;;-0.14;48.70;100263.09;1771272;79;20971;-65
2023/04/05 02:13:40;;;;;;;7.65;2.85;;;;;;;-0.11;48.71;100270.81;1760495;79;21044;-66
2023/04/05 02:16:07;;;;;;;5.33;2.95;;;;;;;-0.10;48.80;100265.70;1769113;79;21294;-65
2023/04/05 02:18:33;;;;;;;5.45;2.70;;;;;;;-0.07;48.78;100262.30;1762345;79;21008;-66
2023/04/05 02:21:04;;;;;;;5.83;2.77;;;;;;;-0.05;48.92;100260.59;1768233;80;21010;-65
2023/04/05 02:23:31;;;;;;;7.78;2.50;;;;;;;0.00;48.98;100267.90;1759803;80;21409;-67
2023/04/05 02:25:58;;;;;;;3.22;2.22;;;;;;;0.04;49.02;100265.77;1763353;80;21494;-65
2023/04/05 02:28:24;;;;;;;4.83;2.40;;;;;;;0.06;49.05;100258.94;1765948;79;21095;-65
2023/04/05 02:30:51;;;;;;;5.37;2.50;;;;;;;0.06;49.10;100261.50;1763780;79;21067;-65
2023/04/05 02:33:17;;;;;;;6.65;2.67;;;;;;;0.03;49.10;100258.92;1767684;79;21030;-66
2023/04/05 02:35:43;;;;;;;5.75;2.90;;;;;;;0.06;49.19;100263.22;1766765;79;21528;-64
2023/04/05 02:38:10;;;;;;;5.67;3.08;;;;;;;0.07;49.26;100258.07;1768623;80;21347;-66
2023/04/05 02:40:40;;;;;;;4.77;3.20;;;;;;;-0.12;49.28;100239.59;1762893;79;21067;-65
2023/04/05 02:43:04;;;;;;;5.62;2.85;;;;;;;-0.12;49.28;100239.59;1759040;79;21064;-66
2023/04/05 02:45:31;;;;;;;4.43;3.10;;;;;;;-0.06;49.34;100253.73;1766043;79;21052;-67
2023/04/05 02:47:57;;;;;;;5.90;3.58;;;;;;;-0.11;49.42;100252.44;1768467;79;21033;-65
2023/04/05 02:50:23;;;;;;;7.83;4.67;;;;;;;-0.16;49.41;100258.41;1762290;80;21604;-66
2023/04/05 02:52:50;;;;;;;7.00;4.25;;;;;;;-0.25;49.47;100252.80;1761597;79;21601;-65
2023/04/05 02:55:17;;;;;;;4.87;2.70;;;;;;;-0.29;49.62;100249.34;1764034;80;22058;-65
2023/04/05 02:57:43;;;;;;;5.87;3.00;;;;;;;-0.32;49.65;100244.20;1768503;79;21422;-66
2023/04/05 03:00:11;;;;;;;6.50;2.27;;;;;;;-0.49;49.68;100245.81;1765464;79;21006;-66
2023/04/05 03:02:41;;;;;;;5.30;2.65;;;;;;;-0.53;49.86;100246.66;1766863;79;21041;-64
2023/04/05 03:05:09;;;;;;;4.78;2.80;;;;;;;-0.53;49.87;100246.23;1764231;79;22142;-66
2023/04/05 03:07:35;;;;;;;;;;;;;;;-0.55;49.94;100248.35;1782117;79;21017;-64
2023/04/05 03:10:02;;;;;;;8.83;2.90;;;;;;;-0.57;50.39;100247.47;1773278;80;20581;-64
2023/04/05 03:12:28;;;;;;;8.20;2.80;;;;;;;-0.60;50.19;100244.89;1781724;79;21065;-65
2023/04/05 03:14:54;;;;;;;5.20;3.00;;;;;;;-0.70;50.09;100246.52;1778022;79;21032;-65
2023/04/05 03:17:20;;;;;;;6.40;2.75;;;;;;;-0.77;50.16;100238.37;1779917;79;20954;-66
2023/04/05 03:19:47;;;;;;;9.68;3.60;;;;;;;-0.85;50.17;100247.28;1775934;80;22313;-65
2023/04/05 03:22:13;;;;;;;5.60;2.67;;;;;;;-0.87;50.42;100243.84;1783885;80;21017;-65
2023/04/05 03:24:41;;;;;;;23.27;5.12;;;;;;;-0.84;50.49;100252.86;1782508;79;21025;-65
2023/04/05 03:27:07;;;;;;;;;;;;;;;-0.73;50.71;100244.83;1781983;79;21048;-64
2023/04/05 03:29:34;;;;;;;8.55;4.08;;;;;;;-0.65;51.20;100244.00;1784921;79;20457;-66
2023/04/05 03:32:00;;;;;;;9.85;3.77;;;;;;;-0.59;50.77;100244.03;1782235;79;21035;-65
2023/04/05 03:34:27;;;;;;;11.95;4.03;;;;;;;-0.56;50.83;100238.92;1783845;79;22122;-66
2023/04/05 03:36:54;;;;;;;12.60;4.85;;;;;;;-0.54;51.02;100244.49;1779357;80;20959;-65
2023/04/05 03:39:20;;;;;;;6.70;4.10;;;;;;;-0.48;51.11;100242.39;1783460;79;21675;-65
2023/04/05 03:41:47;;;;;;;9.03;3.60;;;;;;;-0.43;51.07;100240.72;1778734;79;21289;-66
2023/04/05 03:44:13;;;;;;;7.95;3.08;;;;;;;-0.41;50.95;100241.59;1785073;79;21067;-66
2023/04/05 03:46:44;;;;;;;11.48;3.75;;;;;;;-0.42;50.98;100234.76;1731091;79;21567;-65
2023/04/05 03:49:10;;;;;;;25.97;4.97;;;;;;;-0.37;51.06;100239.89;1784976;80;21000;-65
2023/04/05 03:51:36;;;;;;;9.28;3.58;;;;;;;-0.32;51.14;100227.95;1782755;80;21033;-65
2023/04/05 03:54:03;;;;;;;32.53;5.12;;;;;;;-0.29;51.26;100231.38;1777977;79;21572;-65
2023/04/05 03:56:29;;;;;;;18.82;4.58;;;;;;;-0.19;51.37;100232.73;1774919;80;21009;-65
2023/04/05 03:58:56;;;;;;;18.95;3.70;;;;;;;-0.10;51.24;100234.05;1779338;79;20982;-66
2023/04/05 04:01:22;;;;;;;17.17;3.90;;;;;;;-0.03;51.32;100231.92;1780219;80;21062;-67
2023/04/05 04:03:48;;;;;;;6.33;3.22;;;;;;;0.06;51.37;100231.13;1775731;80;21060;-65
2023/04/05 04:06:17;;;;;;;10.53;2.80;;;;;;;0.07;51.21;100229.83;1773542;80;21615;-65
2023/04/05 04:08:44;;;;;;;7.78;3.10;;;;;;;0.03;51.29;100228.12;1778710;80;21037;-65
2023/04/05 04:11:10;;;;;;;7.20;3.40;;;;;;;0.06;51.40;100229.41;1772787;80;20994;-64
2023/04/05 04:13:36;;;;;;;21.87;4.08;;;;;;;0.08;51.41;100226.39;1774874;80;21002;-65
2023/04/05 04:16:03;;;;;;;21.48;4.03;;;;;;;0.13;51.44;100228.55;1778893;80;20942;-66
2023/04/05 04:18:31;;;;;;;14.60;3.33;;;;;;;0.16;51.46;100237.55;1783937;80;21005;-65
2023/04/05 04:20:57;;;;;;;7.45;3.12;;;;;;;0.18;51.45;100238.42;1784820;79;20966;-65
2023/04/05 04:23:23;;;;;;;8.18;3.15;;;;;;;0.16;51.49;100242.69;1788744;80;21070;-66
2023/04/05 04:25:53;;;;;;;19.95;3.98;;;;;;;0.16;51.51;100236.27;1785042;79;21127;-66
2023/04/05 04:28:23;;;;;;;14.85;3.77;;;;;;;0.14;51.58;100234.14;1782782;79;21152;-66
2023/04/05 04:30:51;;;;;;;12.37;4.00;;;;;;;0.17;51.64;100236.72;1784641;79;20966;-66
2023/04/05 04:33:18;;;;;;;12.15;3.50;;;;;;;0.16;51.61;100240.12;1782949;80;20997;-66
2023/04/05 04:35:45;;;;;;;12.45;3.87;;;;;;;0.12;51.61;100239.69;1780939;80;20935;-66
2023/04/05 04:38:19;;;;;;;17.77;3.80;;;;;;;0.10;51.69;100244.39;1781908;80;20979;-66
2023/04/05 04:40:46;;;;;;;25.17;4.47;;;;;;;0.11;51.76;100243.13;1783033;80;20957;-67
2023/04/05 04:43:19;;;;;;;14.53;3.62;;;;;;;0.15;51.85;100238.42;1789579;80;20958;-66
2023/04/05 04:45:48;;;;;;;12.75;3.35;;;;;;;0.13;51.88;100235.41;1781854;79;21011;-66
2023/04/05 04:48:17;;;;;;;42.55;5.28;;;;;;;0.11;51.92;100239.27;1787515;80;20982;-66
2023/04/05 04:50:45;;;;;;;21.80;4.53;;;;;;;0.05;51.90;100239.22;1790174;80;21517;-66
2023/04/05 04:53:12;;;;;;;;;;;;;;;-0.04;51.82;100233.63;1782026;80;20967;-66
2023/04/05 04:55:44;;;;;;;18.30;4.50;;;;;;;-0.16;52.29;100236.59;1783221;80;20082;-66
2023/04/05 04:58:10;;;;;;;7.92;4.08;;;;;;;-0.16;52.15;100239.16;1777816;80;21033;-66
2023/04/05 05:00:42;;;;;;;16.50;4.33;;;;;;;-0.15;52.28;100234.02;1790376;80;21021;-66
2023/04/05 05:03:10;;;;;;;9.95;4.90;;;;;;;-0.12;52.29;100230.61;1778889;78;21018;-66
2023/04/05 05:05:48;;;;;;;8.93;5.20;;;;;;;-0.14;52.09;100227.16;1783874;79;20995;-65
2023/04/05 05:08:14;;;;;;;;;;;;;;;-0.24;52.07;100227.13;1773639;79;20992;-65
2023/04/05 05:10:41;;;;;;;8.83;4.83;;;;;;;-0.26;52.55;100227.55;1768768;80;20674;-67
2023/04/05 05:13:08;;;;;;;17.95;6.08;;;;;;;-0.18;52.58;100230.58;1768007;79;21366;-67
2023/04/05 05:15:34;;;;;;;11.27;5.63;;;;;;;-0.08;52.72;100232.34;1768873;79;21023;-66
2023/04/05 05:18:00;;;;;;;15.65;7.30;;;;;;;0.12;52.87;100231.99;1769034;80;20989;-66
2023/04/05 05:20:27;;;;;;;12.70;7.62;;;;;;;0.33;52.77;100229.05;1768824;79;21001;-76
2023/04/05 05:23:02;;;;;;;16.30;9.45;;;;;;;0.47;52.71;100228.64;1766759;79;21107;-66
2023/04/05 05:25:41;;;;;;;16.82;7.78;;;;;;;0.58;52.74;100226.95;1772109;79;21045;-67
2023/04/05 05:28:10;;;;;;;16.40;8.43;;;;;;;0.79;52.73;100226.56;1770870;80;21033;-71
2023/04/05 05:30:40;;;;;;;16.52;8.28;;;;;;;0.99;52.77;100226.56;1765205;80;21003;-66
2023/04/05 05:33:06;;;;;;;16.60;9.70;;;;;;;1.14;52.75;100225.25;1773080;79;21008;-73
2023/04/05 05:35:33;;;;;;;19.10;8.93;;;;;;;1.29;52.68;100215.40;1773359;79;20933;-67
2023/04/05 05:38:01;;;;;;;11.43;5.67;;;;;;;1.47;52.84;100215.34;1767349;80;21019;-71
2023/04/05 05:40:28;;;;;;;10.95;3.15;;;;;;;1.67;52.79;100209.28;1766936;79;21529;-67
2023/04/05 05:42:54;;;;;;;6.95;2.60;;;;;;;1.86;52.77;100210.93;1763667;79;20994;-68
2023/04/05 05:45:20;;;;;;;3.65;1.87;;;;;;;2.05;52.71;100211.72;1768585;80;20951;-69
2023/04/05 05:47:47;;;;;;;2.87;2.08;;;;;;;2.23;52.57;100213.33;1773001;80;21085;-67
2023/04/05 05:50:15;;;;;;;3.80;2.10;;;;;;;2.36;52.47;100212.41;1766675;79;20955;-69
2023/04/05 05:52:41;;;;;;;5.12;2.47;;;;;;;2.51;52.54;100211.88;1774588;79;21020;-72
2023/04/05 05:55:13;;;;;;;9.50;2.10;;;;;;;2.63;52.53;100209.20;1765923;79;21009;-74
2023/04/05 05:57:37;;;;;;;5.35;2.20;;;;;;;2.81;52.51;100210.37;1772547;80;21018;-67
2023/04/05 06:00:08;;;;;;;4.83;2.40;;;;;;;3.03;52.63;100212.79;1768424;79;20985;-73
2023/04/05 06:02:36;;;;;;;7.40;2.02;;;;;;;3.29;52.69;100203.06;1767644;79;21023;-74
2023/04/05 06:05:03;;;;;;;7.33;1.90;;;;;;;3.61;52.62;100199.28;1772253;80;21539;-62
2023/04/05 06:07:30;;;;;;;3.65;1.62;;;;;;;3.76;52.29;100200.41;1758832;79;21085;-66
2023/04/05 06:09:58;;;;;;;4.45;2.37;;;;;;;3.88;52.18;100204.56;1764205;80;21049;-66
2023/04/05 06:12:24;;;;;;;4.97;2.15;;;;;;;4.03;52.33;100198.34;1761447;80;21040;-67
2023/04/05 06:14:50;;;;;;;4.15;1.60;;;;;;;4.24;52.29;100203.68;1760035;81;21058;-68
2023/04/05 06:17:18;;;;;;;3.30;1.80;;;;;;;4.35;52.14;100204.39;1762568;81;20943;-66
2023/04/05 06:19:44;;;;;;;4.08;2.70;;;;;;;4.48;52.08;100196.00;1756503;81;21033;-67
2023/04/05 06:22:11;;;;;;;5.67;2.47;;;;;;;4.58;51.95;100198.88;1764651;80;21082;-67
2023/04/05 06:24:40;;;;;;;5.15;2.22;;;;;;;4.74;51.88;100199.95;1760548;81;20994;-70
2023/04/05 06:27:06;;;;;;;6.42;2.02;;;;;;;4.89;52.03;100194.06;1757121;80;21067;-69
2023/04/05 06:29:34;;;;;;;6.27;2.97;;;;;;;5.18;51.97;100194.45;1759956;81;20954;-66
2023/04/05 06:32:01;;;;;;;5.08;2.10;;;;;;;5.33;51.73;100196.78;1766140;80;21002;-68
2023/04/05 06:34:27;;;;;;;4.00;2.08;;;;;;;5.64;52.09;100188.43;1761741;81;21171;-67
2023/04/05 06:36:54;;;;;;;5.85;2.10;;;;;;;5.95;51.72;100183.06;1763663;81;21028;-68
2023/04/05 06:39:21;;;;;;;5.05;2.27;;;;;;;6.10;51.18;100191.39;1758026;80;20962;-65
2023/04/05 06:41:47;;;;;;;7.25;2.83;;;;;;;6.05;51.31;100187.17;1759659;80;21062;-67
2023/04/05 06:44:15;;;;;;;7.62;3.42;;;;;;;6.18;51.46;100194.68;1762402;80;20977;-68
2023/04/05 06:46:42;;;;;;;6.80;2.75;;;;;;;6.42;51.32;100186.36;1755724;81;20987;-68
2023/04/05 06:49:08;;;;;;;5.15;2.05;;;;;;;6.49;51.24;100188.36;1760729;81;21529;-66
2023/04/05 06:51:35;;;;;;;3.50;2.27;;;;;;;6.37;51.05;100188.20;1764753;81;21033;-66
2023/04/05 06:54:01;;;;;;;12.95;3.85;;;;;;;6.25;51.00;100190.63;1764973;81;21016;-66
2023/04/05 06:56:28;;;;;;;6.17;2.22;;;;;;;6.07;50.67;100198.79;1755390;80;21003;-66
2023/04/05 06:58:54;;;;;;;6.20;2.00;;;;;;;5.89;50.88;100187.05;1762858;80;21501;-67
2023/04/05 07:01:21;;;;;;;5.58;1.80;;;;;;;5.90;50.80;100191.34;1760893;79;21001;-66
2023/04/05 07:03:47;;;;;;;3.35;1.67;;;;;;;5.98;51.08;100190.77;1762007;81;21064;-66
2023/04/05 07:06:14;;;;;;;4.35;2.33;;;;;;;6.13;50.93;100193.92;1759322;79;21059;-66
2023/04/05 07:08:40;;;;;;;3.95;2.05;;;;;;;6.19;50.89;100192.48;1755817;81;20987;-66
2023/04/05 07:11:07;;;;;;;3.72;2.02;;;;;;;6.27;51.13;100185.39;1760654;79;20961;-66
2023/04/05 07:13:33;;;;;;;5.53;2.02;;;;;;;6.40;50.97;100190.72;1763881;79;20989;-66
2023/04/05 07:16:02;;;;;;;3.58;1.62;;;;;;;6.40;50.73;100189.42;1768270;81;22027;-64
2023/04/05 07:18:28;;;;;;;5.03;1.77;;;;;;;6.31;50.24;100188.34;1763383;81;21008;-64
2023/04/05 07:20:59;;;;;;;3.37;1.80;;;;;;;5.99;50.29;100200.27;1737179;81;21028;-69
2023/04/05 07:23:26;;;;;;;3.85;1.50;;;;;;;5.79;50.75;100196.73;1761255;81;20984;-70
2023/04/05 07:25:53;;;;;;;3.80;1.80;;;;;;;5.51;50.57;100191.23;1762510;81;21562;-69
2023/04/05 07:28:20;;;;;;;9.55;1.57;;;;;;;5.32;50.83;100197.64;1770618;79;21062;-68
2023/04/05 07:30:46;;;;;;;5.08;1.60;;;;;;;5.21;50.86;100199.56;1770091;80;21013;-69
2023/04/05 07:33:13;;;;;;;4.15;1.60;;;;;;;5.24;50.83;100202.13;1765676;79;20970;-69
2023/04/05 07:35:40;;;;;;;5.25;3.60;;;;;;;5.22;50.70;100196.12;1766940;81;21002;-69
2023/04/05 07:38:06;;;;;;;4.45;1.60;;;;;;;5.18;50.58;100194.45;1772108;79;20989;-69
2023/04/05 07:40:32;;;;;;;4.42;1.47;;;;;;;5.26;50.86;100188.25;1765045;79;21027;-69
2023/04/05 07:42:58;;;;;;;3.92;1.57;;;;;;;5.58;50.92;100194.59;1765772;81;21533;-70
2023/04/05 07:45:26;;;;;;;3.75;1.72;;;;;;;6.33;51.62;100189.59;1758433;81;21606;-69
2023/04/05 07:48:13;;;;;;;5.12;2.33;;;;;;;6.85;50.64;100186.63;1771994;79;21539;-70
2023/04/05 07:50:51;;;;;;;1.98;1.40;;;;;;;6.93;50.04;100178.21;1757736;80;21018;-69
2023/04/05 07:53:16;;;;;;;5.15;1.82;;;;;;;6.86;50.37;100188.36;1766945;79;21541;-68
2023/04/05 07:55:42;;;;;;;12.33;1.95;;;;;;;6.79;50.28;100184.19;1762340;79;21066;-69
2023/04/05 07:58:09;;;;;;;5.03;1.50;;;;;;;6.72;50.29;100189.98;1766510;79;21001;-68
2023/04/05 08:00:36;;;;;;;4.17;1.47;;;;;;;6.59;50.35;100189.02;1763924;81;21068;-68
2023/04/05 08:03:03;;;;;;;2.33;1.02;;;;;;;6.56;50.51;100186.50;1764950;81;21513;-69
2023/04/05 08:05:30;;;;;;;5.47;1.70;;;;;;;6.63;50.75;100159.50;1767361;81;21032;-69
2023/04/05 08:07:57;;;;;;;2.77;1.30;;;;;;;6.98;50.35;100188.94;1758974;79;20960;-69
2023/04/05 08:10:24;;;;;;;6.43;1.83;;;;;;;7.25;50.71;100188.20;1764462;79;21082;-69
2023/04/05 08:12:50;;;;;;;;;;;;;;;7.50;50.79;100187.56;1759814;81;21053;-70
2023/04/05 08:15:16;;;;;;;8.30;2.05;;;;;;;8.03;50.89;100183.89;1770153;79;20115;-69
2023/04/05 08:17:42;;;;;;;5.00;1.45;;;;;;;9.29;52.20;100183.81;1756919;81;21040;-68
2023/04/05 08:20:09;;;;;;;5.00;1.50;;;;;;;10.67;52.05;100172.14;1767637;79;21056;-68
2023/04/05 08:22:35;;;;;;;2.33;1.40;;;;;;;12.06;51.83;100146.97;1765189;79;21011;-68
2023/04/05 08:25:02;;;;;;;7.30;1.45;;;;;;;13.79;51.39;100154.52;1766052;81;20966;-69
2023/04/05 08:27:28;;;;;;;3.42;1.40;;;;;;;15.31;51.17;100149.39;1772429;81;21468;-70
2023/04/05 08:29:55;;;;;;;3.40;1.25;;;;;;;16.78;51.08;100152.02;1759060;81;20999;-66
2023/04/05 08:32:21;;;;;;;2.45;1.10;;;;;;;18.32;50.50;100146.70;1764313;79;21031;-66
2023/04/05 08:34:48;;;;;;;3.63;1.97;;;;;;;19.69;50.67;100146.55;1766660;79;20949;-65
2023/04/05 08:37:15;;;;;;;2.77;1.32;;;;;;;20.32;48.02;100144.98;1762172;81;21547;-65
2023/04/05 08:39:41;;;;;;;3.62;1.62;;;;;;;19.68;47.85;100144.84;1763093;79;21040;-65
2023/04/05 08:42:19;;;;;;;2.73;1.53;;;;;;;19.77;49.37;100146.75;1761354;81;21081;-66
2023/04/05 08:44:48;;;;;;;2.12;1.10;;;;;;;20.52;49.51;100135.89;1765266;81;21020;-65
2023/04/05 08:47:17;;;;;;;2.95;1.12;;;;;;;22.18;49.49;100128.41;1762907;79;21133;-65
2023/04/05 08:49:45;;;;;;;2.70;1.10;;;;;;;22.87;47.49;100132.80;1768687;79;21006;-64
2023/04/05 08:52:13;;;;;;;3.87;1.05;;;;;;;22.93;46.34;100127.73;1769834;79;21004;-74
2023/04/05 08:54:39;;;;;;;2.77;1.05;;;;;;;21.88;44.30;100135.46;1760748;79;21117;-77
2023/04/05 08:57:07;;;;;;;3.95;1.22;;;;;;;20.44;44.29;100129.05;1766235;79;21629;-68
2023/04/05 08:59:37;;;;;;;5.20;1.20;;;;;;;19.13;43.59;100125.24;1765848;79;21097;-73
2023/04/05 09:02:08;;;;;;;3.87;1.22;;;;;;;17.95;42.61;100128.18;1758026;81;20987;-65
2023/04/05 09:04:43;;;;;;;4.20;1.17;;;;;;;17.00;42.83;100134.78;1760214;81;21142;-72
2023/04/05 09:07:08;;;;;;;1.55;0.88;;;;;;;16.64;42.58;100129.66;1765246;80;22562;-65
2023/04/05 09:09:36;;;;;;;3.80;1.50;;;;;;;16.73;42.64;100134.31;1767041;80;21102;-65
2023/04/05 09:12:03;;;;;;;5.33;1.70;;;;;;;17.50;42.73;100129.13;1768743;80;21552;-64
2023/04/05 09:14:31;;;;;;;;;;;;;;;17.45;40.52;100127.30;1773342;79;21022;-65
2023/04/05 09:17:00;;;;;;;9.48;1.72;;;;;;;16.27;39.00;100137.33;1772316;79;20173;-64
2023/04/05 09:19:26;;;;;;;4.67;1.75;;;;;;;15.19;39.63;100142.25;1766673;79;21069;-64
2023/04/05 09:22:04;;;;;;;1.72;0.93;;;;;;;14.14;39.70;100146.49;1767796;80;20989;-66
2023/04/05 09:24:43;;;;;;;2.72;1.20;;;;;;;13.32;39.69;100142.13;1770931;79;20995;-64
2023/04/05 09:27:15;;;;;;;1.75;0.70;;;;;;;12.74;39.98;100146.76;1766823;80;21461;-65
2023/04/05 09:29:44;;;;;;;26.60;2.40;;;;;;;12.45;39.85;100153.86;1774213;79;21031;-66
2023/04/05 09:32:12;;;;;;;11.05;1.47;;;;;;;12.09;38.58;100148.13;1770510;79;21418;-66
2023/04/05 09:34:41;;;;;;;2.10;0.80;;;;;;;11.70;38.98;100149.01;1767404;79;21568;-66
2023/04/05 09:37:18;;;;;;;1.72;1.10;;;;;;;11.45;38.65;100153.63;1772172;79;20998;-64
2023/04/05 09:39:48;;;;;;;3.37;0.80;;;;;;;12.61;40.69;100161.38;1767772;79;21008;-66
2023/04/05 09:42:17;;;;;;;1.60;0.75;;;;;;;13.69;39.17;100158.09;1764421;80;21529;-66
2023/04/05 09:45:01;;;;;;;2.50;0.70;;;;;;;14.89;40.01;100150.99;1767014;80;21531;-67
2023/04/05 09:47:31;;;;;;;2.22;1.05;;;;;;;17.02;40.18;100144.73;1766009;79;20974;-66
2023/04/05 09:49:58;;;;;;;1.55;0.90;;;;;;;19.35;40.36;100138.55;1768686;80;20954;-67
2023/04/05 09:52:32;;;;;;;1.98;0.80;;;;;;;21.60;40.25;100135.21;1762081;79;20988;-68
2023/04/05 09:55:02;;;;;;;2.27;0.95;;;;;;;21.72;38.61;100136.44;1774425;80;21540;-68
2023/04/05 09:57:32;;;;;;;2.17;1.10;;;;;;;21.37;38.08;100133.67;1770055;79;20974;-68
2023/04/05 10:00:00;;;;;;;4.78;1.32;;;;;;;20.18;37.49;100137.31;1767796;79;20994;-67
2023/04/05 10:02:38;;;;;;;1.02;0.65;;;;;;;18.53;36.10;100144.27;1769661;80;20993;-67
2023/04/05 10:05:14;;;;;;;2.33;0.70;;;;;;;17.08;36.29;100151.38;1768341;79;21041;-63
2023/04/05 10:07:44;;;;;;;1.57;0.80;;;;;;;15.93;36.73;100153.56;1746951;80;20971;-69
2023/04/05 10:10:14;;;;;;;2.10;0.80;;;;;;;15.02;36.23;100150.30;1778402;80;21682;-66
2023/04/05 10:12:43;;;;;;;2.17;1.10;;;;;;;14.02;35.88;100160.67;1778498;80;21054;-69
2023/04/05 10:15:13;;;;;;;3.10;1.00;;;;;;;13.37;36.13;100159.32;1755196;80;21437;-68
2023/04/05 10:18:01;;;;;;;6.95;2.22;;;;;;;13.14;36.32;100160.48;1777639;80;21032;-68
2023/04/05 10:20:31;;;;;;;10.63;4.50;;;;;;;13.60;36.60;100160.73;1781853;80;21060;-68
2023/04/05 10:23:15;;;;;;;2.35;1.20;;;;;;;13.95;35.95;100154.52;1771139;80;20959;-64
2023/04/05 10:25:54;;;;;;;5.30;0.90;;;;;;;13.71;35.45;100156.70;1782435;78;21078;-68
2023/04/05 10:28:36;;;;;;;1.92;1.10;;;;;;;13.55;35.66;100161.91;1780851;80;21090;-67
2023/04/05 10:31:26;;;;;;;3.22;1.57;;;;;;;13.65;35.85;100161.34;1776382;79;21014;-69
2023/04/05 10:34:05;;;;;;;4.05;1.37;;;;;;;13.97;35.60;100160.55;1700557;83;21628;-70
2023/04/05 10:36:40;;;;;;;8.05;1.30;;;;;;;13.94;34.29;100163.34;1707335;83;21045;-63
2023/04/05 10:39:34;;;;;;;1.60;0.78;;;;;;;13.64;35.12;100160.98;1704652;83;21041;-68
2023/04/05 10:42:19;;;;;;;9.48;1.10;;;;;;;13.58;34.93;100167.86;1705998;83;21108;-67
2023/04/05 10:44:49;;;;;;;3.77;0.90;;;;;;;13.41;34.89;100165.25;1702638;83;21032;-65
2023/04/05 10:47:18;;;;;;;4.95;1.00;;;;;;;13.03;34.76;100168.04;1699705;83;21010;-74
2023/04/05 10:49:50;;;;;;;1.42;0.75;;;;;;;12.81;34.96;100166.10;1699100;83;21480;-64
2023/04/05 10:52:22;;;;;;;1.50;0.90;;;;;;;12.69;34.88;100178.03;1704746;83;21060;-68
2023/04/05 10:54:49;;;;;;;2.00;1.02;;;;;;;12.64;34.76;100178.72;1702631;83;21525;-65
2023/04/05 10:57:18;;;;;;;2.20;1.07;;;;;;;12.41;34.85;100170.66;1698482;83;20999;-71
2023/04/05 10:59:46;;;;;;;2.35;1.62;;;;;;;12.28;34.79;100171.22;1702347;83;21009;-74
2023/04/05 11:02:13;;;;;;;;;;;;;;;12.09;34.66;100171.69;1705522;83;21091;-64
2023/04/05 11:04:40;;;;;;;;;;;;;;;12.01;34.19;100163.34;1710169;83;20172;-66
2023/04/05 11:07:16;;;;;;;;;;;;;;;12.13;34.71;100164.10;1706526;83;20202;-63
2023/04/05 11:10:01;;;;;;;2.65;1.98;;;;;;;12.61;35.07;100161.38;1716905;80;20181;-64
2023/04/05 11:12:55;;;;;;;2.60;1.50;;;;;;;13.05;34.59;100158.33;1772533;80;21019;-66
2023/04/05 11:15:33;;;;;;;3.25;0.80;;;;;;;13.35;34.67;100163.79;1695460;83;20967;-69
2023/04/05 11:18:08;;;;;;;2.45;1.50;;;;;;;13.49;34.70;100159.61;1704622;83;20989;-67
2023/04/05 11:20:43;;;;;;;2.75;1.10;;;;;;;13.76;34.36;100161.25;1701148;83;20994;-65
2023/04/05 11:23:11;;;;;;;1.42;0.70;;;;;;;13.75;34.35;100160.84;1702453;83;21091;-70
2023/04/05 11:25:41;;;;;;;2.72;0.75;;;;;;;13.78;34.46;100168.55;1701832;83;21023;-66
2023/04/05 11:28:10;;;;;;;2.75;0.85;;;;;;;13.65;34.41;100169.22;1714726;83;20954;-66
2023/04/05 11:30:47;;;;;;;2.55;0.80;;;;;;;13.69;34.36;100174.30;1698540;83;21064;-67
2023/04/05 11:33:41;;;;;;;3.02;0.85;;;;;;;13.51;34.19;100178.28;1693744;83;21100;-63
2023/04/05 11:36:14;;;;;;;2.10;0.80;;;;;;;13.27;34.30;100175.61;1699268;83;21041;-67
2023/04/05 11:38:36;;;;;;;7.45;1.10;;;;;;;13.20;34.46;100174.58;1698374;83;21196;-69
2023/04/05 11:41:16;;;;;;;2.70;0.83;;;;;;;12.95;33.99;100167.57;1703245;83;21013;-67